createdAt,value
2022-12-09T00:00:08.457Z,99491.98
2022-12-09T00:02:59.555Z,99493.48
2022-12-09T00:05:28.263Z,99497.90
2022-12-09T00:07:57.104Z,99498.19
2022-12-09T00:10:26.296Z,99500.19
2022-12-09T00:12:56.716Z,99500.63
2022-12-09T00:15:25.329Z,99502.46
2022-12-09T00:17:53.937Z,99502.23
2022-12-09T00:20:22.437Z,99506.16
2022-12-09T00:22:50.864Z,99509.91
2022-12-09T00:25:19.399Z,99512.33
2022-12-09T00:27:47.957Z,99510.45
2022-12-09T00:30:16.563Z,99515.17
2022-12-09T00:32:45.008Z,99513.99
2022-12-09T00:35:14.177Z,99515.02
2022-12-09T00:37:42.674Z,99512.61
2022-12-09T00:40:11.929Z,99511.08
2022-12-09T00:42:40.551Z,99514.58
2022-12-09T00:45:09.356Z,99518.25
2022-12-09T00:47:38.037Z,99518.50
2022-12-09T00:50:07.635Z,99523.10
2022-12-09T00:52:36.396Z,99522.85
2022-12-09T00:55:05.405Z,99525.31
2022-12-09T00:57:34.121Z,99525.67
2022-12-09T01:00:02.773Z,99526.84
2022-12-09T01:02:31.732Z,99524.40
2022-12-09T01:05:00.736Z,99524.85
2022-12-09T01:07:29.568Z,99525.68
2022-12-09T01:09:58.096Z,99524.97
2022-12-09T01:12:26.610Z,99526.30
2022-12-09T01:14:55.133Z,99524.84
2022-12-09T01:17:23.895Z,99526.65
2022-12-09T01:19:52.619Z,99525.00
2022-12-09T01:22:21.393Z,99521.67
2022-12-09T01:24:50.325Z,99519.90
2022-12-09T01:27:19.106Z,99520.52
2022-12-09T01:29:47.725Z,99520.33
2022-12-09T01:32:16.922Z,99526.52
2022-12-09T01:34:45.593Z,99525.83
2022-12-09T01:37:14.248Z,99529.70
2022-12-09T01:39:42.654Z,99531.69
2022-12-09T01:42:19.871Z,99535.88
2022-12-09T01:45:22.488Z,99539.17
2022-12-09T01:48:06.127Z,99535.40
2022-12-09T01:50:37.990Z,99530.55
2022-12-09T01:53:07.989Z,99534.52
2022-12-09T01:55:42.690Z,99530.10
2022-12-09T01:58:11.389Z,99526.50
2022-12-09T02:00:40.589Z,99527.14
2022-12-09T02:03:09.305Z,99530.17
2022-12-09T02:05:38.444Z,99537.29
2022-12-09T02:08:18.926Z,99537.98
2022-12-09T02:11:20.365Z,99537.56
2022-12-09T02:13:57.263Z,99536.98
2022-12-09T02:16:34.775Z,99542.33
2022-12-09T02:19:22.061Z,99538.22
2022-12-09T02:21:59.403Z,99539.36
2022-12-09T02:24:42.044Z,99542.23
2022-12-09T02:27:20.735Z,99543.03
2022-12-09T02:30:16.341Z,99548.98
2022-12-09T02:33:18.202Z,99542.31
2022-12-09T02:35:56.030Z,99548.80
2022-12-09T02:38:28.288Z,99549.50
2022-12-09T02:41:05.892Z,99548.61
2022-12-09T02:43:43.693Z,99550.28
2022-12-09T02:46:19.124Z,99546.49
2022-12-09T02:48:55.927Z,99549.06
2022-12-09T02:51:27.893Z,99547.60
2022-12-09T02:54:03.891Z,99547.45
2022-12-09T02:56:37.481Z,99546.77
2022-12-09T02:59:05.913Z,99549.70
2022-12-09T03:02:03.699Z,99550.21
2022-12-09T03:04:32.927Z,99550.87
2022-12-09T03:07:36.520Z,99552.23
2022-12-09T03:10:30.457Z,99556.34
2022-12-09T03:13:05.727Z,99552.21
2022-12-09T03:15:37.802Z,99550.35
2022-12-09T03:18:10.985Z,99550.36
2022-12-09T03:20:42.265Z,99546.09
2022-12-09T03:23:16.079Z,99549.35
2022-12-09T03:25:47.137Z,99548.31
2022-12-09T03:28:28.538Z,99547.42
2022-12-09T03:31:00.381Z,99544.93
2022-12-09T03:33:32.604Z,99542.77
2022-12-09T03:36:09.046Z,99541.66
2022-12-09T03:38:40.198Z,99542.17
2022-12-09T03:41:30.125Z,99539.20
2022-12-09T03:44:43.216Z,99539.85
2022-12-09T03:47:12.112Z,99540.51
2022-12-09T03:49:41.179Z,99543.11
2022-12-09T03:52:42.618Z,99542.63
2022-12-09T03:55:24.948Z,99539.77
2022-12-09T03:57:58.748Z,99540.52
2022-12-09T04:00:27.771Z,99542.80
2022-12-09T04:02:56.482Z,99541.79
2022-12-09T04:05:25.218Z,99543.78
2022-12-09T04:07:53.915Z,99541.95
2022-12-09T04:10:22.505Z,99541.80
2022-12-09T04:12:51.301Z,99536.95
2022-12-09T04:15:20.029Z,99535.80
2022-12-09T04:17:48.652Z,99530.59
2022-12-09T04:20:18.024Z,99534.98
2022-12-09T04:22:46.895Z,99535.15
2022-12-09T04:25:15.695Z,99533.25
2022-12-09T04:27:44.322Z,99532.42
2022-12-09T04:30:13.575Z,99536.33
2022-12-09T04:32:42.567Z,99536.59
2022-12-09T04:35:11.308Z,99542.08
2022-12-09T04:37:39.771Z,99533.98
2022-12-09T04:40:09.179Z,99540.23
2022-12-09T04:42:37.974Z,99539.20
2022-12-09T04:45:10.619Z,99539.70
2022-12-09T04:47:39.896Z,99537.44
2022-12-09T04:50:09.121Z,99539.84
2022-12-09T04:52:37.804Z,99543.39
2022-12-09T04:55:10.661Z,99542.50
2022-12-09T04:57:39.339Z,99539.43
2022-12-09T05:00:09.281Z,99538.80
2022-12-09T05:02:38.353Z,99534.40
2022-12-09T05:05:07.157Z,99536.81
2022-12-09T05:07:36.558Z,99543.08
2022-12-09T05:10:06.622Z,99542.41
2022-12-09T05:12:35.644Z,99544.40
2022-12-09T05:15:04.598Z,99550.70
2022-12-09T05:17:33.111Z,99553.15
2022-12-09T05:20:01.633Z,99557.92
2022-12-09T05:22:30.389Z,99556.60
2022-12-09T05:24:58.978Z,99557.02
2022-12-09T05:27:28.286Z,99558.85
2022-12-09T05:29:57.110Z,99561.00
2022-12-09T05:32:26.035Z,99556.39
2022-12-09T05:34:54.923Z,99562.52
2022-12-09T05:37:23.493Z,99565.61
2022-12-09T05:39:51.998Z,99562.98
2022-12-09T05:42:20.563Z,99564.81
2022-12-09T05:44:49.310Z,99566.66
2022-12-09T05:47:17.950Z,99564.48
2022-12-09T05:49:46.937Z,99562.58
2022-12-09T05:52:15.730Z,99569.17
2022-12-09T05:54:47.698Z,99573.09
2022-12-09T05:57:16.461Z,99571.55
2022-12-09T05:59:45.427Z,99569.48
2022-12-09T06:02:14.027Z,99567.35
2022-12-09T06:04:42.868Z,99567.52
2022-12-09T06:07:12.375Z,99571.34
2022-12-09T06:09:41.916Z,99576.13
2022-12-09T06:12:11.248Z,99573.54
2022-12-09T06:14:39.950Z,99576.15
2022-12-09T06:17:08.935Z,99577.27
2022-12-09T06:19:37.749Z,99574.70
2022-12-09T06:22:06.607Z,99576.05
2022-12-09T06:24:36.502Z,99581.17
2022-12-09T06:27:05.307Z,99581.30
2022-12-09T06:29:33.816Z,99585.19
2022-12-09T06:32:02.560Z,99586.34
2022-12-09T06:34:31.489Z,99583.14
2022-12-09T06:37:00.139Z,99584.08
2022-12-09T06:39:29.125Z,99585.99
2022-12-09T06:41:57.865Z,99593.08
2022-12-09T06:44:26.878Z,99590.31
2022-12-09T06:46:55.606Z,99593.07
2022-12-09T06:49:24.948Z,99594.73
2022-12-09T06:51:53.529Z,99594.31
2022-12-09T06:54:23.675Z,99593.67
2022-12-09T06:56:52.139Z,99591.57
2022-12-09T06:59:21.120Z,99596.60
2022-12-09T07:01:49.852Z,99595.42
2022-12-09T07:04:18.859Z,99592.50
2022-12-09T07:06:48.028Z,99599.02
2022-12-09T07:09:19.825Z,99596.98
2022-12-09T07:11:49.812Z,99602.90
2022-12-09T07:14:19.534Z,99601.80
2022-12-09T07:16:48.582Z,99603.23
2022-12-09T07:19:20.400Z,99604.14
2022-12-09T07:21:51.576Z,99606.71
2022-12-09T07:24:21.267Z,99603.03
2022-12-09T07:26:50.835Z,99602.73
2022-12-09T07:29:19.574Z,99602.80
2022-12-09T07:31:48.738Z,99603.48
2022-12-09T07:34:17.618Z,99604.73
2022-12-09T07:36:46.714Z,99606.02
2022-12-09T07:39:18.562Z,99603.33
2022-12-09T07:41:51.530Z,99605.60
2022-12-09T07:44:19.928Z,99611.07
2022-12-09T07:46:48.733Z,99613.51
2022-12-09T07:49:18.331Z,99618.01
2022-12-09T07:51:47.702Z,99617.48
2022-12-09T07:54:18.316Z,99617.33
2022-12-09T07:56:51.284Z,99616.56
2022-12-09T07:59:20.407Z,99612.27
2022-12-09T08:01:49.270Z,99611.54
2022-12-09T08:04:18.061Z,99613.02
2022-12-09T08:06:47.199Z,99614.79
2022-12-09T08:09:16.619Z,99612.55
2022-12-09T08:11:45.426Z,99610.64
2022-12-09T08:14:15.012Z,99612.88
2022-12-09T08:16:43.941Z,99616.84
2022-12-09T08:19:13.717Z,99620.43
2022-12-09T08:21:43.335Z,99616.67
2022-12-09T08:24:13.613Z,99615.69
2022-12-09T08:26:43.298Z,99612.21
2022-12-09T08:29:14.326Z,99611.81
2022-12-09T08:31:44.286Z,99612.92
2022-12-09T08:34:14.699Z,99615.25
2022-12-09T08:36:45.076Z,99610.05
2022-12-09T08:39:14.747Z,99610.21
2022-12-09T08:41:44.664Z,99612.59
2022-12-09T08:44:21.101Z,99615.56
2022-12-09T08:46:52.030Z,99616.70
2022-12-09T08:49:23.531Z,99621.44
2022-12-09T08:51:53.859Z,99616.37
2022-12-09T08:54:25.759Z,99619.39
2022-12-09T08:56:56.237Z,99624.31
2022-12-09T08:59:25.400Z,99629.45
2022-12-09T09:01:54.766Z,99627.03
2022-12-09T09:04:24.338Z,99630.44
2022-12-09T09:06:53.721Z,99631.28
2022-12-09T09:09:23.472Z,99634.27
2022-12-09T09:11:52.629Z,99633.60
2022-12-09T09:14:21.925Z,99633.61
2022-12-09T09:16:50.811Z,99634.28
2022-12-09T09:19:22.773Z,99632.27
2022-12-09T09:21:51.909Z,99637.58
2022-12-09T09:24:23.083Z,99634.67
2022-12-09T09:26:53.904Z,99633.48
2022-12-09T09:29:24.115Z,99630.92
2022-12-09T09:31:56.538Z,99631.91
2022-12-09T09:34:27.844Z,99635.15
2022-12-09T09:36:57.750Z,99630.71
2022-12-09T09:39:26.574Z,99627.94
2022-12-09T09:42:07.777Z,99631.80
2022-12-09T09:44:46.585Z,99634.45
2022-12-09T09:47:18.881Z,99634.17
2022-12-09T09:49:55.634Z,99638.42
2022-12-09T09:52:27.477Z,99637.43
2022-12-09T09:55:47.447Z,99641.69
2022-12-09T09:58:34.093Z,99638.68
2022-12-09T10:01:05.140Z,99637.73
2022-12-09T10:03:37.037Z,99639.80
2022-12-09T10:06:32.236Z,99643.10
2022-12-09T10:09:10.768Z,99643.39
2022-12-09T10:12:26.432Z,99644.20
2022-12-09T10:15:05.400Z,99636.10
2022-12-09T10:17:51.317Z,99632.11
2022-12-09T10:20:23.658Z,99633.14
2022-12-09T10:23:12.928Z,99629.92
2022-12-09T10:25:49.933Z,99627.62
2022-12-09T10:28:24.683Z,99626.94
2022-12-09T10:30:55.608Z,99626.61
2022-12-09T10:33:39.860Z,99622.85
2022-12-09T10:36:23.545Z,99623.77
2022-12-09T10:38:52.519Z,99622.63
2022-12-09T10:41:59.098Z,99615.61
2022-12-09T10:44:29.703Z,99618.25
2022-12-09T10:47:21.626Z,99617.19
2022-12-09T10:49:53.469Z,99616.83
2022-12-09T10:52:30.355Z,99612.35
2022-12-09T10:54:59.617Z,99607.94
2022-12-09T10:57:31.253Z,99613.70
2022-12-09T11:00:27.096Z,99613.31
2022-12-09T11:02:58.419Z,99606.88
2022-12-09T11:05:30.296Z,99605.63
2022-12-09T11:07:59.984Z,99606.73
2022-12-09T11:10:31.108Z,99605.61
2022-12-09T11:13:15.955Z,99608.05
2022-12-09T11:15:59.678Z,99608.77
2022-12-09T11:18:33.099Z,99609.38
2022-12-09T11:21:05.836Z,99605.20
2022-12-09T11:23:35.978Z,99603.30
2022-12-09T11:26:14.990Z,99599.89
2022-12-09T11:28:44.009Z,99598.05
2022-12-09T11:31:31.745Z,99598.66
2022-12-09T11:34:26.313Z,99598.00
2022-12-09T11:36:59.392Z,99594.31
2022-12-09T11:39:35.962Z,99594.21
2022-12-09T11:42:23.464Z,99595.15
2022-12-09T11:44:59.961Z,99592.00
2022-12-09T11:48:13.480Z,99594.38
2022-12-09T11:50:32.918Z,99593.38
2022-12-09T11:53:13.794Z,99589.18
2022-12-09T11:55:53.790Z,99592.11
2022-12-09T11:58:28.386Z,99590.05
2022-12-09T12:01:04.522Z,99587.20
2022-12-09T12:03:52.328Z,99584.88
2022-12-09T12:06:29.300Z,99584.89
2022-12-09T12:09:12.434Z,99581.15
2022-12-09T12:11:47.575Z,99572.80
2022-12-09T12:14:21.438Z,99564.55
2022-12-09T12:16:57.758Z,99564.90
2022-12-09T12:19:35.390Z,99565.70
2022-12-09T12:22:22.665Z,99562.99
2022-12-09T12:25:21.180Z,99558.02
2022-12-09T12:28:17.897Z,99556.16
2022-12-09T12:30:59.369Z,99551.92
2022-12-09T12:36:53.471Z,99541.50
2022-12-09T12:40:05.018Z,99539.94
2022-12-09T12:42:39.754Z,99539.38
2022-12-09T12:45:59.654Z,99538.19
2022-12-09T12:48:38.732Z,99542.36
2022-12-09T12:51:23.624Z,99537.63
2022-12-09T12:54:16.006Z,99535.48
2022-12-09T12:57:11.576Z,99537.90
2022-12-09T13:00:04.241Z,99541.33
2022-12-09T13:03:19.786Z,99538.12
2022-12-09T13:05:51.688Z,99532.98
2022-12-09T13:08:33.070Z,99531.18
2022-12-09T13:11:09.002Z,99530.96
2022-12-09T13:13:48.870Z,99532.39
2022-12-09T13:16:25.778Z,99535.92
2022-12-09T13:19:07.400Z,99538.46
2022-12-09T13:21:36.885Z,99545.70
2022-12-09T13:24:21.930Z,99548.13
2022-12-09T13:27:00.987Z,99551.80
2022-12-09T13:29:38.330Z,99551.58
2022-12-09T13:32:40.940Z,99556.89
2022-12-09T13:35:27.735Z,99556.10
2022-12-09T13:37:58.561Z,99560.70
2022-12-09T13:40:39.542Z,99558.98
2022-12-09T13:43:15.319Z,99558.61
2022-12-09T13:45:44.076Z,99561.45
2022-12-09T13:48:17.092Z,99559.67
2022-12-09T13:50:52.006Z,99563.15
2022-12-09T13:53:20.547Z,99557.92
2022-12-09T13:56:15.135Z,99557.74
2022-12-09T13:59:21.788Z,99562.53
2022-12-09T14:02:15.900Z,99563.10
2022-12-09T14:04:52.867Z,99557.98
2022-12-09T14:07:33.896Z,99557.47
2022-12-09T14:10:03.430Z,99561.14
2022-12-09T14:12:33.091Z,99562.13
2022-12-09T14:15:03.101Z,99569.67
2022-12-09T14:17:31.498Z,99570.23
2022-12-09T14:20:23.174Z,99567.00
2022-12-09T14:23:07.494Z,99567.91
2022-12-09T14:25:36.041Z,99564.36
2022-12-09T14:28:10.495Z,99565.92
2022-12-09T14:30:55.956Z,99559.89
2022-12-09T14:33:35.174Z,99554.98
2022-12-09T14:36:06.983Z,99548.80
2022-12-09T14:39:15.730Z,99548.43
2022-12-09T14:42:04.589Z,99555.21
2022-12-09T14:44:40.835Z,99551.22
2022-12-09T14:47:30.187Z,99551.85
2022-12-09T14:50:12.676Z,99557.39
2022-12-09T14:52:55.121Z,99554.92
2022-12-09T14:55:26.236Z,99557.73
2022-12-09T14:57:58.491Z,99555.58
2022-12-09T15:00:35.212Z,99556.30
2022-12-09T15:03:32.048Z,99556.89
2022-12-09T15:06:11.279Z,99555.89
2022-12-09T15:08:43.379Z,99555.55
2022-12-09T15:11:14.520Z,99549.61
2022-12-09T15:13:47.345Z,99548.81
2022-12-09T15:16:21.094Z,99550.98
2022-12-09T15:18:51.215Z,99545.61
2022-12-09T15:21:29.113Z,99540.41
2022-12-09T15:24:00.333Z,99537.05
2022-12-09T15:26:33.115Z,99538.83
2022-12-09T15:29:05.558Z,99536.33
2022-12-09T15:31:35.228Z,99534.16
2022-12-09T15:34:20.442Z,99534.52
2022-12-09T15:37:06.464Z,99533.52
2022-12-09T15:39:45.161Z,99532.80
2022-12-09T15:42:18.987Z,99531.79
2022-12-09T15:45:01.295Z,99529.39
2022-12-09T15:47:42.291Z,99529.73
2022-12-09T15:50:24.779Z,99530.40
2022-12-09T15:53:03.782Z,99529.73
2022-12-09T15:56:08.085Z,99528.56
2022-12-09T15:58:52.219Z,99521.76
2022-12-09T16:01:30.469Z,99522.80
2022-12-09T16:04:03.653Z,99524.69
2022-12-09T16:06:36.352Z,99521.80
2022-12-09T16:09:21.662Z,99516.88
2022-12-09T16:11:55.427Z,99512.13
2022-12-09T16:14:25.037Z,99513.34
2022-12-09T16:16:58.965Z,99513.52
2022-12-09T16:19:36.634Z,99511.50
2022-12-09T16:22:12.092Z,99514.58
2022-12-09T16:25:14.186Z,99512.89
2022-12-09T16:27:49.262Z,99512.20
2022-12-09T16:30:21.817Z,99513.73
2022-12-09T16:32:57.924Z,99520.35
2022-12-09T16:35:34.219Z,99528.39
2022-12-09T16:38:10.360Z,99526.88
2022-12-09T16:40:46.424Z,99531.48
2022-12-09T16:43:16.867Z,99536.09
2022-12-09T16:45:51.105Z,99535.93
2022-12-09T16:48:22.751Z,99535.41
2022-12-09T16:51:20.469Z,99531.48
2022-12-09T16:53:55.132Z,99527.37
2022-12-09T16:56:27.799Z,99527.70
2022-12-09T16:59:00.076Z,99524.97
2022-12-09T17:01:36.161Z,99527.36
2022-12-09T17:04:14.423Z,99525.49
2022-12-09T17:06:45.030Z,99517.83
2022-12-09T17:09:14.608Z,99510.16
2022-12-09T17:11:49.265Z,99509.51
2022-12-09T17:14:19.721Z,99510.02
2022-12-09T17:16:50.390Z,99514.63
2022-12-09T17:19:21.680Z,99514.66
2022-12-09T17:21:52.897Z,99509.38
2022-12-09T17:24:22.590Z,99508.72
2022-12-09T17:26:53.888Z,99507.00
2022-12-09T17:29:23.918Z,99504.62
2022-12-09T17:31:54.984Z,99500.17
2022-12-09T17:34:26.869Z,99505.11
2022-12-09T17:36:59.256Z,99506.48
2022-12-09T17:39:29.572Z,99512.25
2022-12-09T17:42:01.249Z,99505.08
2022-12-09T17:44:36.521Z,99504.17
2022-12-09T17:47:06.648Z,99504.30
2022-12-09T17:49:36.128Z,99509.36
2022-12-09T17:52:05.396Z,99505.21
2022-12-09T17:54:34.545Z,99510.47
2022-12-09T17:57:05.475Z,99509.77
2022-12-09T17:59:34.391Z,99511.63
2022-12-09T18:02:05.520Z,99514.51
2022-12-09T18:04:34.522Z,99514.52
2022-12-09T18:07:04.133Z,99512.59
2022-12-09T18:09:33.077Z,99517.33
2022-12-09T18:12:01.936Z,99520.20
2022-12-09T18:14:31.054Z,99524.12
2022-12-09T18:17:01.744Z,99525.80
2022-12-09T18:19:30.788Z,99530.71
2022-12-09T18:22:00.370Z,99530.34
2022-12-09T18:24:32.455Z,99531.69
2022-12-09T18:27:01.983Z,99528.10
2022-12-09T18:29:31.783Z,99530.09
2022-12-09T18:32:03.006Z,99529.71
2022-12-09T18:34:33.848Z,99530.88
2022-12-09T18:37:03.945Z,99533.58
2022-12-09T18:39:37.764Z,99529.32
2022-12-09T18:42:07.093Z,99525.56
2022-12-09T18:44:35.874Z,99523.34
2022-12-09T18:47:04.664Z,99521.63
2022-12-09T18:49:33.861Z,99524.02
2022-12-09T18:52:04.527Z,99522.15
2022-12-09T18:54:34.411Z,99517.06
2022-12-09T18:57:04.690Z,99520.81
2022-12-09T18:59:34.067Z,99516.67
2022-12-09T19:02:03.654Z,99517.67
2022-12-09T19:04:33.621Z,99518.70
2022-12-09T19:07:04.172Z,99517.17
2022-12-09T19:09:36.620Z,99515.64
2022-12-09T19:12:44.821Z,99515.30
2022-12-09T19:15:00.344Z,99518.54
2022-12-09T19:17:31.595Z,99520.39
2022-12-09T19:20:01.217Z,99523.75
2022-12-09T19:22:31.209Z,99526.98
2022-12-09T19:25:08.319Z,99522.89
2022-12-09T19:27:41.013Z,99518.45
2022-12-09T19:30:13.321Z,99519.62
2022-12-09T19:32:58.239Z,99513.77
2022-12-09T19:35:28.770Z,99515.08
2022-12-09T19:38:01.792Z,99514.44
2022-12-09T19:40:33.370Z,99512.77
2022-12-09T19:43:04.838Z,99516.00
2022-12-09T19:45:36.499Z,99512.92
2022-12-09T19:48:07.916Z,99514.25
2022-12-09T19:50:38.184Z,99516.42
2022-12-09T19:53:08.972Z,99516.38
2022-12-09T19:55:41.737Z,99511.05
2022-12-09T19:58:13.675Z,99513.25
2022-12-09T20:00:45.379Z,99512.92
2022-12-09T20:03:16.715Z,99515.47
2022-12-09T20:05:55.223Z,99521.23
2022-12-09T20:08:28.520Z,99518.35
2022-12-09T20:10:58.077Z,99519.70
2022-12-09T20:13:31.799Z,99517.95
2022-12-09T20:16:07.838Z,99517.71
2022-12-09T20:18:38.909Z,99511.89
2022-12-09T20:21:13.716Z,99518.52
2022-12-09T20:23:45.431Z,99520.25
2022-12-09T20:26:21.273Z,99517.86
2022-12-09T20:28:54.230Z,99514.73
2022-12-09T20:31:31.859Z,99514.91
2022-12-09T20:34:05.186Z,99505.69
2022-12-09T20:36:38.682Z,99508.41
2022-12-09T20:39:13.081Z,99504.11
2022-12-09T20:41:43.828Z,99504.80
2022-12-09T20:44:14.748Z,99503.14
2022-12-09T20:46:50.131Z,99500.54
2022-12-09T20:49:27.176Z,99504.80
2022-12-09T20:51:57.520Z,99503.08
2022-12-09T20:54:27.585Z,99502.87
2022-12-09T20:56:57.538Z,99504.20
2022-12-09T20:59:27.343Z,99499.59
2022-12-09T21:01:57.653Z,99500.61
2022-12-09T21:04:29.552Z,99498.05
2022-12-09T21:06:59.209Z,99502.49
2022-12-09T21:09:30.399Z,99504.35
2022-12-09T21:12:03.569Z,99505.50
2022-12-09T21:14:37.134Z,99508.89
2022-12-09T21:17:07.929Z,99508.36
2022-12-09T21:19:39.227Z,99509.37
2022-12-09T21:22:09.139Z,99511.73
2022-12-09T21:24:39.158Z,99510.88
2022-12-09T21:27:12.473Z,99508.48
2022-12-09T21:29:42.233Z,99513.09
2022-12-09T21:32:11.845Z,99512.93
2022-12-09T21:34:42.054Z,99516.67
2022-12-09T21:37:11.801Z,99517.65
2022-12-09T21:39:41.351Z,99518.97
2022-12-09T21:42:10.775Z,99516.41
2022-12-09T21:44:43.056Z,99519.34
2022-12-09T21:47:13.865Z,99517.44
2022-12-09T21:49:42.245Z,99516.88
2022-12-09T21:52:13.528Z,99516.72
2022-12-09T21:54:41.890Z,99516.35
2022-12-09T21:57:11.728Z,99514.98
2022-12-09T21:59:41.057Z,99515.45
2022-12-09T22:02:11.506Z,99511.38
2022-12-09T22:04:40.628Z,99516.67
2022-12-09T22:07:09.252Z,99519.89
2022-12-09T22:09:38.774Z,99515.64
2022-12-09T22:12:07.587Z,99517.70
2022-12-09T22:14:37.398Z,99520.71
2022-12-09T22:17:05.929Z,99520.34
2022-12-09T22:19:35.134Z,99519.42
2022-12-09T22:22:08.897Z,99521.67
2022-12-09T22:24:38.092Z,99520.99
2022-12-09T22:27:06.641Z,99517.58
2022-12-09T22:29:34.905Z,99517.23
2022-12-09T22:32:03.193Z,99513.83
2022-12-09T22:34:31.470Z,99511.46
2022-12-09T22:37:14.909Z,99514.39
2022-12-09T22:39:48.208Z,99514.79
2022-12-09T22:42:16.644Z,99517.55
2022-12-09T22:44:44.959Z,99518.24
2022-12-09T22:47:13.480Z,99516.20
2022-12-09T22:49:42.037Z,99516.02
2022-12-09T22:52:10.480Z,99514.81
2022-12-09T22:54:38.975Z,99514.40
2022-12-09T22:57:13.450Z,99512.52
2022-12-09T22:59:43.168Z,99510.95
2022-12-09T23:02:11.943Z,99513.30
2022-12-09T23:04:40.588Z,99515.37
2022-12-09T23:07:09.682Z,99513.99
2022-12-09T23:09:38.138Z,99515.83
2022-12-09T23:12:06.762Z,99516.01
2022-12-09T23:14:35.286Z,99517.67
2022-12-09T23:17:03.670Z,99523.43
2022-12-09T23:19:32.113Z,99518.08
2022-12-09T23:22:00.500Z,99517.34
2022-12-09T23:24:28.941Z,99515.52
2022-12-09T23:26:57.387Z,99516.06
2022-12-09T23:29:25.959Z,99515.41
2022-12-09T23:31:54.444Z,99520.05
2022-12-09T23:34:23.898Z,99520.23
2022-12-09T23:36:52.360Z,99519.39
2022-12-09T23:39:20.788Z,99520.40
2022-12-09T23:41:49.337Z,99521.41
2022-12-09T23:44:19.521Z,99517.77
2022-12-09T23:46:49.115Z,99517.79
2022-12-09T23:49:18.100Z,99518.39
2022-12-09T23:51:47.129Z,99520.16
2022-12-09T23:54:18.206Z,99521.40
2022-12-09T23:56:51.847Z,99521.05
2022-12-09T23:59:22.262Z,99519.70
